sensor_id;sensor_type;location;lat;lon;timestamp;pressure;altitude;pressure_sealevel;temperature
15079;BMP180;6932;51.438;5.470;2022-10-22T00:00:14;100541.00;;;19.10
15079;BMP180;6932;51.438;5.470;2022-10-22T00:02:41;100542.00;;;19.10
15079;BMP180;6932;51.438;5.470;2022-10-22T00:05:08;100547.00;;;19.00
15079;BMP180;6932;51.438;5.470;2022-10-22T00:07:34;100534.00;;;19.00
15079;BMP180;6932;51.438;5.470;2022-10-22T00:10:00;100540.00;;;19.00
15079;BMP180;6932;51.438;5.470;2022-10-22T00:12:26;100544.00;;;19.00
15079;BMP180;6932;51.438;5.470;2022-10-22T00:14:52;100542.00;;;19.00
15079;BMP180;6932;51.438;5.470;2022-10-22T00:17:18;100536.00;;;19.00
15079;BMP180;6932;51.438;5.470;2022-10-22T00:19:44;100540.00;;;18.90
15079;BMP180;6932;51.438;5.470;2022-10-22T00:22:10;100538.00;;;19.00
15079;BMP180;6932;51.438;5.470;2022-10-22T00:24:38;100545.00;;;18.90
15079;BMP180;6932;51.438;5.470;2022-10-22T00:27:07;100537.00;;;18.90
15079;BMP180;6932;51.438;5.470;2022-10-22T00:29:33;100538.00;;;18.90
15079;BMP180;6932;51.438;5.470;2022-10-22T00:31:59;100532.00;;;18.90
15079;BMP180;6932;51.438;5.470;2022-10-22T00:34:25;100540.00;;;18.90
15079;BMP180;6932;51.438;5.470;2022-10-22T00:36:51;100544.00;;;18.90
15079;BMP180;6932;51.438;5.470;2022-10-22T00:39:20;100549.00;;;18.90
15079;BMP180;6932;51.438;5.470;2022-10-22T00:41:49;100532.00;;;18.90
15079;BMP180;6932;51.438;5.470;2022-10-22T00:47:36;100536.00;;;18.80
15079;BMP180;6932;51.438;5.470;2022-10-22T00:50:12;100535.00;;;18.80
15079;BMP180;6932;51.438;5.470;2022-10-22T00:52:38;100539.00;;;18.80
15079;BMP180;6932;51.438;5.470;2022-10-22T00:55:05;100546.00;;;18.80
15079;BMP180;6932;51.438;5.470;2022-10-22T00:57:32;100547.00;;;18.80
15079;BMP180;6932;51.438;5.470;2022-10-22T00:59:59;100546.00;;;18.80
15079;BMP180;6932;51.438;5.470;2022-10-22T01:02:25;100545.00;;;18.80
15079;BMP180;6932;51.438;5.470;2022-10-22T01:04:52;100541.00;;;18.80
15079;BMP180;6932;51.438;5.470;2022-10-22T01:07:21;100533.00;;;18.80
15079;BMP180;6932;51.438;5.470;2022-10-22T01:12:53;100539.00;;;18.80
15079;BMP180;6932;51.438;5.470;2022-10-22T01:15:37;100537.00;;;18.80
15079;BMP180;6932;51.438;5.470;2022-10-22T01:24:34;100537.00;;;18.80
15079;BMP180;6932;51.438;5.470;2022-10-22T01:27:30;100536.00;;;18.70
15079;BMP180;6932;51.438;5.470;2022-10-22T01:30:05;100539.00;;;18.70
15079;BMP180;6932;51.438;5.470;2022-10-22T01:32:40;100535.00;;;18.70
15079;BMP180;6932;51.438;5.470;2022-10-22T01:35:12;100534.00;;;18.70
15079;BMP180;6932;51.438;5.470;2022-10-22T01:37:48;100527.00;;;18.70
15079;BMP180;6932;51.438;5.470;2022-10-22T01:40:15;100530.00;;;18.70
15079;BMP180;6932;51.438;5.470;2022-10-22T01:42:41;100526.00;;;18.70
15079;BMP180;6932;51.438;5.470;2022-10-22T01:45:12;100524.00;;;18.70
15079;BMP180;6932;51.438;5.470;2022-10-22T01:50:41;100540.00;;;18.70
15079;BMP180;6932;51.438;5.470;2022-10-22T02:05:22;100534.00;;;18.60
15079;BMP180;6932;51.438;5.470;2022-10-22T02:08:18;100532.00;;;18.70
15079;BMP180;6932;51.438;5.470;2022-10-22T02:10:48;100532.00;;;18.60
15079;BMP180;6932;51.438;5.470;2022-10-22T02:13:24;100529.00;;;18.70
15079;BMP180;6932;51.438;5.470;2022-10-22T02:15:52;100527.00;;;18.70
15079;BMP180;6932;51.438;5.470;2022-10-22T02:18:23;100533.00;;;18.70
15079;BMP180;6932;51.438;5.470;2022-10-22T02:20:52;100520.00;;;18.70
15079;BMP180;6932;51.438;5.470;2022-10-22T02:23:20;100525.00;;;18.70
15079;BMP180;6932;51.438;5.470;2022-10-22T02:25:54;100524.00;;;18.70
15079;BMP180;6932;51.438;5.470;2022-10-22T02:28:35;100525.00;;;18.70
15079;BMP180;6932;51.438;5.470;2022-10-22T02:31:18;100527.00;;;18.70
15079;BMP180;6932;51.438;5.470;2022-10-22T02:33:53;100537.00;;;18.70
15079;BMP180;6932;51.438;5.470;2022-10-22T02:36:20;100528.00;;;18.60
15079;BMP180;6932;51.438;5.470;2022-10-22T02:38:49;100542.00;;;18.60
15079;BMP180;6932;51.438;5.470;2022-10-22T02:41:17;100536.00;;;18.70
15079;BMP180;6932;51.438;5.470;2022-10-22T02:43:52;100531.00;;;18.60
15079;BMP180;6932;51.438;5.470;2022-10-22T02:46:18;100537.00;;;18.60
15079;BMP180;6932;51.438;5.470;2022-10-22T02:48:44;100538.00;;;18.60
15079;BMP180;6932;51.438;5.470;2022-10-22T02:51:10;100541.00;;;18.60
15079;BMP180;6932;51.438;5.470;2022-10-22T02:53:36;100538.00;;;18.60
15079;BMP180;6932;51.438;5.470;2022-10-22T02:56:02;100534.00;;;18.60
15079;BMP180;6932;51.438;5.470;2022-10-22T02:58:27;100544.00;;;18.60
15079;BMP180;6932;51.438;5.470;2022-10-22T03:00:53;100546.00;;;18.60
15079;BMP180;6932;51.438;5.470;2022-10-22T03:03:19;100540.00;;;18.60
15079;BMP180;6932;51.438;5.470;2022-10-22T03:05:44;100540.00;;;18.60
15079;BMP180;6932;51.438;5.470;2022-10-22T03:08:10;100544.00;;;18.60
15079;BMP180;6932;51.438;5.470;2022-10-22T03:10:36;100547.00;;;18.50
15079;BMP180;6932;51.438;5.470;2022-10-22T03:13:01;100561.00;;;18.50
15079;BMP180;6932;51.438;5.470;2022-10-22T03:15:27;100555.00;;;18.50
15079;BMP180;6932;51.438;5.470;2022-10-22T03:17:54;100556.00;;;18.50
15079;BMP180;6932;51.438;5.470;2022-10-22T03:20:19;100554.00;;;18.50
15079;BMP180;6932;51.438;5.470;2022-10-22T03:22:45;100552.00;;;18.50
15079;BMP180;6932;51.438;5.470;2022-10-22T03:25:21;100565.00;;;18.50
15079;BMP180;6932;51.438;5.470;2022-10-22T03:27:50;100564.00;;;18.50
15079;BMP180;6932;51.438;5.470;2022-10-22T03:30:17;100563.00;;;18.50
15079;BMP180;6932;51.438;5.470;2022-10-22T03:32:43;100566.00;;;18.50
15079;BMP180;6932;51.438;5.470;2022-10-22T03:35:09;100568.00;;;18.50
15079;BMP180;6932;51.438;5.470;2022-10-22T03:37:35;100565.00;;;18.50
15079;BMP180;6932;51.438;5.470;2022-10-22T03:40:05;100563.00;;;18.50
15079;BMP180;6932;51.438;5.470;2022-10-22T03:42:31;100564.00;;;18.50
15079;BMP180;6932;51.438;5.470;2022-10-22T03:44:57;100583.00;;;18.50
15079;BMP180;6932;51.438;5.470;2022-10-22T03:47:23;100576.00;;;18.60
15079;BMP180;6932;51.438;5.470;2022-10-22T03:49:50;100571.00;;;18.60
15079;BMP180;6932;51.438;5.470;2022-10-22T03:52:16;100583.00;;;18.60
15079;BMP180;6932;51.438;5.470;2022-10-22T03:54:43;100594.00;;;18.70
15079;BMP180;6932;51.438;5.470;2022-10-22T03:57:10;100589.00;;;18.70
15079;BMP180;6932;51.438;5.470;2022-10-22T03:59:42;100592.00;;;18.70
15079;BMP180;6932;51.438;5.470;2022-10-22T04:02:09;100595.00;;;18.80
15079;BMP180;6932;51.438;5.470;2022-10-22T04:04:36;100587.00;;;18.80
15079;BMP180;6932;51.438;5.470;2022-10-22T04:07:04;100580.00;;;18.80
15079;BMP180;6932;51.438;5.470;2022-10-22T04:09:31;100583.00;;;18.90
15079;BMP180;6932;51.438;5.470;2022-10-22T04:11:58;100591.00;;;18.90
15079;BMP180;6932;51.438;5.470;2022-10-22T04:14:24;100592.00;;;18.90
15079;BMP180;6932;51.438;5.470;2022-10-22T04:16:50;100589.00;;;18.90
15079;BMP180;6932;51.438;5.470;2022-10-22T04:19:15;100582.00;;;19.00
15079;BMP180;6932;51.438;5.470;2022-10-22T04:21:41;100594.00;;;19.00
15079;BMP180;6932;51.438;5.470;2022-10-22T04:24:07;100594.00;;;19.00
15079;BMP180;6932;51.438;5.470;2022-10-22T04:26:33;100608.00;;;19.00
15079;BMP180;6932;51.438;5.470;2022-10-22T04:28:59;100601.00;;;19.10
15079;BMP180;6932;51.438;5.470;2022-10-22T04:31:25;100601.00;;;19.10
15079;BMP180;6932;51.438;5.470;2022-10-22T04:33:56;100600.00;;;19.10
15079;BMP180;6932;51.438;5.470;2022-10-22T04:36:23;100593.00;;;19.10
15079;BMP180;6932;51.438;5.470;2022-10-22T04:38:58;100593.00;;;19.10
15079;BMP180;6932;51.438;5.470;2022-10-22T04:41:29;100598.00;;;19.10
15079;BMP180;6932;51.438;5.470;2022-10-22T04:43:55;100594.00;;;19.10
15079;BMP180;6932;51.438;5.470;2022-10-22T04:46:23;100597.00;;;19.10
15079;BMP180;6932;51.438;5.470;2022-10-22T04:48:50;100600.00;;;19.10
15079;BMP180;6932;51.438;5.470;2022-10-22T04:51:19;100602.00;;;19.20
15079;BMP180;6932;51.438;5.470;2022-10-22T04:53:46;100601.00;;;19.20
15079;BMP180;6932;51.438;5.470;2022-10-22T04:56:19;100610.00;;;19.20
15079;BMP180;6932;51.438;5.470;2022-10-22T04:58:51;100603.00;;;19.20
15079;BMP180;6932;51.438;5.470;2022-10-22T05:01:25;100604.00;;;19.20
15079;BMP180;6932;51.438;5.470;2022-10-22T05:03:53;100606.00;;;19.20
15079;BMP180;6932;51.438;5.470;2022-10-22T05:06:20;100606.00;;;19.20
15079;BMP180;6932;51.438;5.470;2022-10-22T05:08:52;100607.00;;;19.20
15079;BMP180;6932;51.438;5.470;2022-10-22T05:11:21;100607.00;;;19.20
15079;BMP180;6932;51.438;5.470;2022-10-22T05:13:47;100608.00;;;19.20
15079;BMP180;6932;51.438;5.470;2022-10-22T05:16:13;100609.00;;;19.20
15079;BMP180;6932;51.438;5.470;2022-10-22T05:18:42;100617.00;;;19.20
15079;BMP180;6932;51.438;5.470;2022-10-22T05:21:17;100613.00;;;19.20
15079;BMP180;6932;51.438;5.470;2022-10-22T05:23:45;100613.00;;;19.20
15079;BMP180;6932;51.438;5.470;2022-10-22T05:26:16;100619.00;;;19.20
15079;BMP180;6932;51.438;5.470;2022-10-22T05:28:43;100621.00;;;19.20
15079;BMP180;6932;51.438;5.470;2022-10-22T05:31:12;100627.00;;;19.20
15079;BMP180;6932;51.438;5.470;2022-10-22T05:33:38;100624.00;;;19.20
15079;BMP180;6932;51.438;5.470;2022-10-22T05:36:07;100626.00;;;19.30
15079;BMP180;6932;51.438;5.470;2022-10-22T05:38:34;100619.00;;;19.20
15079;BMP180;6932;51.438;5.470;2022-10-22T05:41:06;100626.00;;;19.30
15079;BMP180;6932;51.438;5.470;2022-10-22T05:43:33;100632.00;;;19.30
15079;BMP180;6932;51.438;5.470;2022-10-22T05:46:05;100634.00;;;19.30
15079;BMP180;6932;51.438;5.470;2022-10-22T05:48:31;100638.00;;;19.30
15079;BMP180;6932;51.438;5.470;2022-10-22T05:51:06;100631.00;;;19.30
15079;BMP180;6932;51.438;5.470;2022-10-22T05:53:33;100642.00;;;19.30
15079;BMP180;6932;51.438;5.470;2022-10-22T05:56:06;100640.00;;;19.30
15079;BMP180;6932;51.438;5.470;2022-10-22T05:58:33;100648.00;;;19.30
15079;BMP180;6932;51.438;5.470;2022-10-22T06:01:11;100649.00;;;19.30
15079;BMP180;6932;51.438;5.470;2022-10-22T06:03:37;100651.00;;;19.30
15079;BMP180;6932;51.438;5.470;2022-10-22T06:06:36;100655.00;;;19.30
15079;BMP180;6932;51.438;5.470;2022-10-22T06:11:44;100659.00;;;19.20
15079;BMP180;6932;51.438;5.470;2022-10-22T06:14:10;100667.00;;;19.20
15079;BMP180;6932;51.438;5.470;2022-10-22T06:16:36;100668.00;;;19.20
15079;BMP180;6932;51.438;5.470;2022-10-22T06:19:02;100674.00;;;19.20
15079;BMP180;6932;51.438;5.470;2022-10-22T06:21:30;100675.00;;;19.20
15079;BMP180;6932;51.438;5.470;2022-10-22T06:23:58;100673.00;;;19.20
15079;BMP180;6932;51.438;5.470;2022-10-22T06:26:24;100672.00;;;19.20
15079;BMP180;6932;51.438;5.470;2022-10-22T06:28:50;100684.00;;;19.20
15079;BMP180;6932;51.438;5.470;2022-10-22T06:31:16;100680.00;;;19.20
15079;BMP180;6932;51.438;5.470;2022-10-22T06:33:41;100687.00;;;19.20
15079;BMP180;6932;51.438;5.470;2022-10-22T06:36:14;100693.00;;;19.20
15079;BMP180;6932;51.438;5.470;2022-10-22T06:38:40;100694.00;;;19.20
15079;BMP180;6932;51.438;5.470;2022-10-22T06:41:13;100695.00;;;19.20
15079;BMP180;6932;51.438;5.470;2022-10-22T06:43:43;100713.00;;;19.20
15079;BMP180;6932;51.438;5.470;2022-10-22T06:46:16;100712.00;;;19.20
15079;BMP180;6932;51.438;5.470;2022-10-22T06:48:42;100716.00;;;19.20
15079;BMP180;6932;51.438;5.470;2022-10-22T06:51:10;100719.00;;;19.20
15079;BMP180;6932;51.438;5.470;2022-10-22T06:53:38;100719.00;;;19.20
15079;BMP180;6932;51.438;5.470;2022-10-22T06:56:11;100731.00;;;19.30
15079;BMP180;6932;51.438;5.470;2022-10-22T06:58:37;100722.00;;;19.30
15079;BMP180;6932;51.438;5.470;2022-10-22T07:01:11;100728.00;;;19.30
15079;BMP180;6932;51.438;5.470;2022-10-22T07:03:39;100735.00;;;19.30
15079;BMP180;6932;51.438;5.470;2022-10-22T07:06:09;100739.00;;;19.30
15079;BMP180;6932;51.438;5.470;2022-10-22T07:08:35;100743.00;;;19.30
15079;BMP180;6932;51.438;5.470;2022-10-22T07:11:20;100749.00;;;19.40
15079;BMP180;6932;51.438;5.470;2022-10-22T07:13:47;100737.00;;;19.40
15079;BMP180;6932;51.438;5.470;2022-10-22T07:16:14;100744.00;;;19.40
15079;BMP180;6932;51.438;5.470;2022-10-22T07:18:42;100748.00;;;19.40
15079;BMP180;6932;51.438;5.470;2022-10-22T07:21:10;100761.00;;;19.40
15079;BMP180;6932;51.438;5.470;2022-10-22T07:23:37;100762.00;;;19.40
15079;BMP180;6932;51.438;5.470;2022-10-22T07:26:04;100760.00;;;19.50
15079;BMP180;6932;51.438;5.470;2022-10-22T07:28:35;100762.00;;;19.50
15079;BMP180;6932;51.438;5.470;2022-10-22T07:31:05;100774.00;;;19.50
15079;BMP180;6932;51.438;5.470;2022-10-22T07:33:31;100777.00;;;19.50
15079;BMP180;6932;51.438;5.470;2022-10-22T07:36:03;100786.00;;;19.50
15079;BMP180;6932;51.438;5.470;2022-10-22T07:38:30;100791.00;;;19.60
15079;BMP180;6932;51.438;5.470;2022-10-22T07:40:56;100795.00;;;19.60
15079;BMP180;6932;51.438;5.470;2022-10-22T07:43:23;100789.00;;;19.60
15079;BMP180;6932;51.438;5.470;2022-10-22T07:45:48;100799.00;;;19.60
15079;BMP180;6932;51.438;5.470;2022-10-22T07:48:15;100796.00;;;19.70
15079;BMP180;6932;51.438;5.470;2022-10-22T07:50:41;100800.00;;;19.70
15079;BMP180;6932;51.438;5.470;2022-10-22T07:53:08;100807.00;;;19.80
15079;BMP180;6932;51.438;5.470;2022-10-22T07:55:34;100789.00;;;19.80
15079;BMP180;6932;51.438;5.470;2022-10-22T07:58:00;100804.00;;;20.00
15079;BMP180;6932;51.438;5.470;2022-10-22T08:00:26;100800.00;;;20.10
15079;BMP180;6932;51.438;5.470;2022-10-22T08:02:52;100812.00;;;20.20
15079;BMP180;6932;51.438;5.470;2022-10-22T08:05:18;100809.00;;;20.40
15079;BMP180;6932;51.438;5.470;2022-10-22T08:07:44;100811.00;;;20.50
15079;BMP180;6932;51.438;5.470;2022-10-22T08:10:11;100820.00;;;20.50
15079;BMP180;6932;51.438;5.470;2022-10-22T08:12:37;100820.00;;;20.60
15079;BMP180;6932;51.438;5.470;2022-10-22T08:15:03;100820.00;;;20.70
15079;BMP180;6932;51.438;5.470;2022-10-22T08:17:29;100818.00;;;20.90
15079;BMP180;6932;51.438;5.470;2022-10-22T08:19:55;100827.00;;;21.10
15079;BMP180;6932;51.438;5.470;2022-10-22T08:22:20;100828.00;;;21.20
15079;BMP180;6932;51.438;5.470;2022-10-22T08:24:46;100837.00;;;21.40
15079;BMP180;6932;51.438;5.470;2022-10-22T08:27:13;100838.00;;;21.50
15079;BMP180;6932;51.438;5.470;2022-10-22T08:29:39;100831.00;;;21.60
15079;BMP180;6932;51.438;5.470;2022-10-22T08:32:05;100835.00;;;21.80
15079;BMP180;6932;51.438;5.470;2022-10-22T08:34:31;100839.00;;;21.90
15079;BMP180;6932;51.438;5.470;2022-10-22T08:36:56;100854.00;;;22.00
15079;BMP180;6932;51.438;5.470;2022-10-22T08:39:23;100853.00;;;22.00
15079;BMP180;6932;51.438;5.470;2022-10-22T08:42:05;100855.00;;;22.10
15079;BMP180;6932;51.438;5.470;2022-10-22T08:45:02;100863.00;;;22.10
15079;BMP180;6932;51.438;5.470;2022-10-22T08:50:46;100864.00;;;22.20
15079;BMP180;6932;51.438;5.470;2022-10-22T08:53:35;100873.00;;;22.20
15079;BMP180;6932;51.438;5.470;2022-10-22T08:56:03;100880.00;;;22.20
15079;BMP180;6932;51.438;5.470;2022-10-22T08:58:46;100878.00;;;22.30
15079;BMP180;6932;51.438;5.470;2022-10-22T09:01:35;100883.00;;;22.30
15079;BMP180;6932;51.438;5.470;2022-10-22T09:04:25;100883.00;;;22.20
15079;BMP180;6932;51.438;5.470;2022-10-22T09:06:56;100879.00;;;22.20
15079;BMP180;6932;51.438;5.470;2022-10-22T09:09:30;100892.00;;;22.20
15079;BMP180;6932;51.438;5.470;2022-10-22T09:11:59;100895.00;;;22.10
15079;BMP180;6932;51.438;5.470;2022-10-22T09:14:25;100910.00;;;22.10
15079;BMP180;6932;51.438;5.470;2022-10-22T09:19:49;100907.00;;;22.00
15079;BMP180;6932;51.438;5.470;2022-10-22T09:22:42;100916.00;;;22.00
15079;BMP180;6932;51.438;5.470;2022-10-22T09:25:21;100914.00;;;22.00
15079;BMP180;6932;51.438;5.470;2022-10-22T09:27:48;100828.00;;;22.00
15079;BMP180;6932;51.438;5.470;2022-10-22T09:30:28;100839.00;;;21.90
15079;BMP180;6932;51.438;5.470;2022-10-22T09:38:12;100844.00;;;21.50
15079;BMP180;6932;51.438;5.470;2022-10-22T09:40:46;100845.00;;;21.40
15079;BMP180;6932;51.438;5.470;2022-10-22T09:43:13;100859.00;;;21.40
15079;BMP180;6932;51.438;5.470;2022-10-22T09:45:39;100854.00;;;21.40
15079;BMP180;6932;51.438;5.470;2022-10-22T09:48:22;100857.00;;;21.30
15079;BMP180;6932;51.438;5.470;2022-10-22T09:51:12;100869.00;;;21.30
15079;BMP180;6932;51.438;5.470;2022-10-22T09:53:54;100867.00;;;21.20
15079;BMP180;6932;51.438;5.470;2022-10-22T09:56:25;100877.00;;;21.10
15079;BMP180;6932;51.438;5.470;2022-10-22T09:58:51;100867.00;;;21.10
15079;BMP180;6932;51.438;5.470;2022-10-22T10:01:29;100878.00;;;21.10
15079;BMP180;6932;51.438;5.470;2022-10-22T10:04:12;100978.00;;;21.00
15079;BMP180;6932;51.438;5.470;2022-10-22T10:06:41;100980.00;;;21.00
15079;BMP180;6932;51.438;5.470;2022-10-22T10:09:21;100982.00;;;21.10
15079;BMP180;6932;51.438;5.470;2022-10-22T10:15:19;100987.00;;;21.30
15079;BMP180;6932;51.438;5.470;2022-10-22T10:18:24;100994.00;;;21.40
15079;BMP180;6932;51.438;5.470;2022-10-22T10:25:11;101004.00;;;21.50
15079;BMP180;6932;51.438;5.470;2022-10-22T10:27:59;101005.00;;;21.60
15079;BMP180;6932;51.438;5.470;2022-10-22T10:30:26;101014.00;;;21.60
15079;BMP180;6932;51.438;5.470;2022-10-22T10:33:23;101010.00;;;21.70
15079;BMP180;6932;51.438;5.470;2022-10-22T10:39:08;101017.00;;;21.70
15079;BMP180;6932;51.438;5.470;2022-10-22T10:48:08;101014.00;;;21.70
15079;BMP180;6932;51.438;5.470;2022-10-22T10:51:07;101022.00;;;21.70
15079;BMP180;6932;51.438;5.470;2022-10-22T10:57:15;101016.00;;;21.70
15079;BMP180;6932;51.438;5.470;2022-10-22T11:00:01;101018.00;;;21.80
15079;BMP180;6932;51.438;5.470;2022-10-22T11:05:43;101017.00;;;21.90
15079;BMP180;6932;51.438;5.470;2022-10-22T11:08:31;101008.00;;;22.00
15079;BMP180;6932;51.438;5.470;2022-10-22T11:11:35;101010.00;;;22.10
15079;BMP180;6932;51.438;5.470;2022-10-22T11:14:21;101014.00;;;22.20
15079;BMP180;6932;51.438;5.470;2022-10-22T11:17:17;101010.00;;;22.40
15079;BMP180;6932;51.438;5.470;2022-10-22T11:19:53;101011.00;;;22.50
15079;BMP180;6932;51.438;5.470;2022-10-22T11:22:38;101006.00;;;22.60
15079;BMP180;6932;51.438;5.470;2022-10-22T11:25:15;101020.00;;;22.60
15079;BMP180;6932;51.438;5.470;2022-10-22T11:28:09;101018.00;;;22.60
15079;BMP180;6932;51.438;5.470;2022-10-22T11:30:37;101020.00;;;22.60
15079;BMP180;6932;51.438;5.470;2022-10-22T11:33:14;101021.00;;;22.60
15079;BMP180;6932;51.438;5.470;2022-10-22T11:35:43;101011.00;;;22.60
15079;BMP180;6932;51.438;5.470;2022-10-22T11:38:24;101006.00;;;22.60
15079;BMP180;6932;51.438;5.470;2022-10-22T11:41:00;101009.00;;;22.50
15079;BMP180;6932;51.438;5.470;2022-10-22T11:43:33;100999.00;;;22.50
15079;BMP180;6932;51.438;5.470;2022-10-22T11:48:40;101006.00;;;22.40
15079;BMP180;6932;51.438;5.470;2022-10-22T11:51:32;100995.00;;;22.40
15079;BMP180;6932;51.438;5.470;2022-10-22T11:57:20;101003.00;;;22.40
15079;BMP180;6932;51.438;5.470;2022-10-22T11:59:59;101006.00;;;22.40
15079;BMP180;6932;51.438;5.470;2022-10-22T12:02:45;101011.00;;;22.40
15079;BMP180;6932;51.438;5.470;2022-10-22T12:08:01;101008.00;;;22.40
15079;BMP180;6932;51.438;5.470;2022-10-22T12:10:50;101006.00;;;22.40
15079;BMP180;6932;51.438;5.470;2022-10-22T12:13:27;101012.00;;;22.40
15079;BMP180;6932;51.438;5.470;2022-10-22T12:15:58;101014.00;;;22.40
15079;BMP180;6932;51.438;5.470;2022-10-22T12:18:33;101018.00;;;22.40
15079;BMP180;6932;51.438;5.470;2022-10-22T12:20:59;101024.00;;;22.40
15079;BMP180;6932;51.438;5.470;2022-10-22T12:23:31;101029.00;;;22.40
15079;BMP180;6932;51.438;5.470;2022-10-22T12:25:58;101032.00;;;22.40
15079;BMP180;6932;51.438;5.470;2022-10-22T12:28:24;101027.00;;;22.50
15079;BMP180;6932;51.438;5.470;2022-10-22T12:30:50;101021.00;;;22.50
15079;BMP180;6932;51.438;5.470;2022-10-22T12:33:21;101028.00;;;22.50
15079;BMP180;6932;51.438;5.470;2022-10-22T12:35:49;101020.00;;;22.50
15079;BMP180;6932;51.438;5.470;2022-10-22T12:38:22;101019.00;;;22.50
15079;BMP180;6932;51.438;5.470;2022-10-22T12:40:50;101021.00;;;22.60
15079;BMP180;6932;51.438;5.470;2022-10-22T12:43:27;101027.00;;;22.60
15079;BMP180;6932;51.438;5.470;2022-10-22T12:45:55;101012.00;;;22.60
15079;BMP180;6932;51.438;5.470;2022-10-22T12:48:37;101011.00;;;22.70
15079;BMP180;6932;51.438;5.470;2022-10-22T12:51:05;101022.00;;;22.70
15079;BMP180;6932;51.438;5.470;2022-10-22T12:53:40;101025.00;;;22.70
15079;BMP180;6932;51.438;5.470;2022-10-22T12:56:34;101022.00;;;22.80
15079;BMP180;6932;51.438;5.470;2022-10-22T12:59:20;101017.00;;;22.80
15079;BMP180;6932;51.438;5.470;2022-10-22T13:01:48;101018.00;;;22.80
15079;BMP180;6932;51.438;5.470;2022-10-22T13:07:14;101008.00;;;22.80
15079;BMP180;6932;51.438;5.470;2022-10-22T13:09:56;101010.00;;;22.80
15079;BMP180;6932;51.438;5.470;2022-10-22T13:12:34;101009.00;;;22.90
15079;BMP180;6932;51.438;5.470;2022-10-22T13:20:56;101014.00;;;23.00
15079;BMP180;6932;51.438;5.470;2022-10-22T13:23:26;101013.00;;;23.00
15079;BMP180;6932;51.438;5.470;2022-10-22T13:26:16;101009.00;;;23.00
15079;BMP180;6932;51.438;5.470;2022-10-22T13:28:54;101005.00;;;23.00
15079;BMP180;6932;51.438;5.470;2022-10-22T13:31:30;101013.00;;;23.00
15079;BMP180;6932;51.438;5.470;2022-10-22T13:34:06;101003.00;;;23.00
15079;BMP180;6932;51.438;5.470;2022-10-22T13:36:35;101014.00;;;23.00
15079;BMP180;6932;51.438;5.470;2022-10-22T13:39:02;101012.00;;;23.00
15079;BMP180;6932;51.438;5.470;2022-10-22T13:41:30;101002.00;;;23.00
15079;BMP180;6932;51.438;5.470;2022-10-22T13:43:58;101013.00;;;23.00
15079;BMP180;6932;51.438;5.470;2022-10-22T13:46:25;101009.00;;;23.00
15079;BMP180;6932;51.438;5.470;2022-10-22T13:48:53;101008.00;;;22.90
15079;BMP180;6932;51.438;5.470;2022-10-22T13:51:23;101008.00;;;22.90
15079;BMP180;6932;51.438;5.470;2022-10-22T13:53:51;101008.00;;;22.90
15079;BMP180;6932;51.438;5.470;2022-10-22T13:56:20;101000.00;;;22.90
15079;BMP180;6932;51.438;5.470;2022-10-22T13:58:47;101005.00;;;22.90
15079;BMP180;6932;51.438;5.470;2022-10-22T14:01:25;101004.00;;;23.00
15079;BMP180;6932;51.438;5.470;2022-10-22T14:03:55;101010.00;;;23.00
15079;BMP180;6932;51.438;5.470;2022-10-22T14:06:23;101002.00;;;23.00
15079;BMP180;6932;51.438;5.470;2022-10-22T14:08:56;101011.00;;;23.00
15079;BMP180;6932;51.438;5.470;2022-10-22T14:11:24;101011.00;;;22.90
15079;BMP180;6932;51.438;5.470;2022-10-22T14:13:52;101023.00;;;23.00
15079;BMP180;6932;51.438;5.470;2022-10-22T14:16:24;101016.00;;;23.00
15079;BMP180;6932;51.438;5.470;2022-10-22T14:18:51;101023.00;;;23.00
15079;BMP180;6932;51.438;5.470;2022-10-22T14:21:17;101018.00;;;23.00
15079;BMP180;6932;51.438;5.470;2022-10-22T14:23:46;101019.00;;;23.00
15079;BMP180;6932;51.438;5.470;2022-10-22T14:26:25;101021.00;;;23.00
15079;BMP180;6932;51.438;5.470;2022-10-22T14:28:56;101026.00;;;23.00
15079;BMP180;6932;51.438;5.470;2022-10-22T14:31:22;101019.00;;;23.00
15079;BMP180;6932;51.438;5.470;2022-10-22T14:33:48;101019.00;;;23.00
15079;BMP180;6932;51.438;5.470;2022-10-22T14:36:16;101017.00;;;23.00
15079;BMP180;6932;51.438;5.470;2022-10-22T14:38:45;101022.00;;;23.00
15079;BMP180;6932;51.438;5.470;2022-10-22T14:41:20;101025.00;;;23.00
15079;BMP180;6932;51.438;5.470;2022-10-22T14:43:47;101030.00;;;23.00
15079;BMP180;6932;51.438;5.470;2022-10-22T14:46:15;101022.00;;;23.00
15079;BMP180;6932;51.438;5.470;2022-10-22T14:48:42;101023.00;;;23.00
15079;BMP180;6932;51.438;5.470;2022-10-22T14:51:14;101025.00;;;23.00
15079;BMP180;6932;51.438;5.470;2022-10-22T14:53:41;101032.00;;;23.00
15079;BMP180;6932;51.438;5.470;2022-10-22T14:56:14;101039.00;;;23.00
15079;BMP180;6932;51.438;5.470;2022-10-22T14:58:40;101044.00;;;23.00
15079;BMP180;6932;51.438;5.470;2022-10-22T15:01:07;101046.00;;;23.00
15079;BMP180;6932;51.438;5.470;2022-10-22T15:03:34;101050.00;;;23.00
15079;BMP180;6932;51.438;5.470;2022-10-22T15:06:00;101058.00;;;23.00
15079;BMP180;6932;51.438;5.470;2022-10-22T15:08:27;101054.00;;;23.00
15079;BMP180;6932;51.438;5.470;2022-10-22T15:11:07;101047.00;;;23.00
15079;BMP180;6932;51.438;5.470;2022-10-22T15:13:34;101051.00;;;22.90
15079;BMP180;6932;51.438;5.470;2022-10-22T15:16:04;101053.00;;;22.90
15079;BMP180;6932;51.438;5.470;2022-10-22T15:18:30;101055.00;;;22.90
15079;BMP180;6932;51.438;5.470;2022-10-22T15:21:04;101058.00;;;22.90
15079;BMP180;6932;51.438;5.470;2022-10-22T15:23:31;101055.00;;;22.90
15079;BMP180;6932;51.438;5.470;2022-10-22T15:25:57;101053.00;;;22.80
15079;BMP180;6932;51.438;5.470;2022-10-22T15:28:23;101060.00;;;22.80
15079;BMP180;6932;51.438;5.470;2022-10-22T15:30:58;101060.00;;;22.80
15079;BMP180;6932;51.438;5.470;2022-10-22T15:33:26;101057.00;;;22.80
15079;BMP180;6932;51.438;5.470;2022-10-22T15:35:53;101061.00;;;22.80
15079;BMP180;6932;51.438;5.470;2022-10-22T15:38:19;101064.00;;;22.80
15079;BMP180;6932;51.438;5.470;2022-10-22T15:40:45;101059.00;;;22.70
15079;BMP180;6932;51.438;5.470;2022-10-22T15:43:11;101058.00;;;22.70
15079;BMP180;6932;51.438;5.470;2022-10-22T15:45:38;101066.00;;;22.70
15079;BMP180;6932;51.438;5.470;2022-10-22T15:48:04;101062.00;;;22.70
15079;BMP180;6932;51.438;5.470;2022-10-22T15:50:30;101060.00;;;22.70
15079;BMP180;6932;51.438;5.470;2022-10-22T16:04:34;101057.00;;;20.80